createdAt,value
2022-11-30T00:01:24.505Z,9.10
2022-11-30T00:03:57.184Z,10.20
2022-11-30T00:06:25.444Z,9.50
2022-11-30T00:08:58.210Z,8.97
2022-11-30T00:11:28.703Z,8.50
2022-11-30T00:13:56.153Z,9.90
2022-11-30T00:16:23.480Z,11.23
2022-11-30T00:18:51.037Z,11.10
2022-11-30T00:21:19.043Z,9.93
2022-11-30T00:23:47.850Z,10.20
2022-11-30T00:26:20.526Z,8.57
2022-11-30T00:28:47.629Z,9.40
2022-11-30T00:31:20.853Z,9.53
2022-11-30T00:33:48.597Z,9.90
2022-11-30T00:36:21.041Z,9.93
2022-11-30T00:38:49.506Z,8.93
2022-11-30T00:41:18.629Z,9.80
2022-11-30T00:43:45.710Z,8.60
2022-11-30T00:46:12.652Z,9.70
2022-11-30T00:48:41.709Z,10.67
2022-11-30T00:51:11.339Z,11.07
2022-11-30T00:53:40.286Z,10.30
2022-11-30T00:56:09.147Z,11.30
2022-11-30T00:58:36.327Z,12.00
2022-11-30T01:01:03.581Z,9.57
2022-11-30T01:03:30.814Z,10.40
2022-11-30T01:06:09.927Z,11.07
2022-11-30T01:08:37.287Z,10.80
2022-11-30T01:11:22.838Z,10.73
2022-11-30T01:13:50.966Z,10.13
2022-11-30T01:16:27.595Z,10.87
2022-11-30T01:18:55.231Z,9.67
2022-11-30T01:21:27.441Z,10.40
2022-11-30T01:23:55.831Z,9.97
2022-11-30T01:26:24.815Z,10.93
2022-11-30T01:28:56.084Z,10.00
2022-11-30T01:31:25.017Z,11.17
2022-11-30T01:33:55.514Z,11.60
2022-11-30T01:36:26.295Z,10.03
2022-11-30T01:38:57.784Z,10.90
2022-11-30T01:41:33.816Z,10.40
2022-11-30T01:44:26.785Z,9.70
2022-11-30T01:47:11.506Z,10.70
2022-11-30T01:50:21.229Z,11.33
2022-11-30T01:52:57.563Z,10.10
2022-11-30T01:55:39.732Z,10.63
2022-11-30T01:58:25.855Z,11.40
2022-11-30T02:00:52.980Z,12.70
2022-11-30T02:03:32.647Z,11.87
2022-11-30T02:06:00.891Z,11.33
2022-11-30T02:08:29.631Z,11.50
2022-11-30T02:11:06.740Z,11.10
2022-11-30T02:14:17.266Z,11.70
2022-11-30T02:17:16.892Z,9.63
2022-11-30T02:19:58.185Z,11.40
2022-11-30T02:23:03.112Z,10.07
2022-11-30T02:26:12.330Z,10.13
2022-11-30T02:29:42.992Z,10.43
2022-11-30T02:32:36.232Z,11.00
2022-11-30T02:35:08.736Z,12.20
2022-11-30T02:37:39.349Z,11.70
2022-11-30T02:40:16.940Z,11.73
2022-11-30T02:42:44.351Z,11.40
2022-11-30T02:45:12.355Z,12.10
2022-11-30T02:47:58.721Z,11.43
2022-11-30T02:50:52.693Z,12.37
2022-11-30T02:53:20.068Z,12.20
2022-11-30T02:55:47.070Z,11.97
2022-11-30T02:58:17.234Z,12.97
2022-11-30T03:00:45.509Z,11.47
2022-11-30T03:03:12.597Z,12.77
2022-11-30T03:05:39.801Z,12.57
2022-11-30T03:08:06.842Z,13.77
2022-11-30T03:10:33.754Z,12.60
2022-11-30T03:13:01.095Z,13.30
2022-11-30T03:15:28.280Z,13.13
2022-11-30T03:17:55.589Z,12.57
2022-11-30T03:20:22.452Z,11.43
2022-11-30T03:22:49.423Z,12.70
2022-11-30T03:25:16.318Z,12.50
2022-11-30T03:27:43.168Z,11.60
2022-11-30T03:30:11.016Z,12.03
2022-11-30T03:32:37.882Z,12.60
2022-11-30T03:35:05.401Z,12.73
2022-11-30T03:37:32.332Z,12.50
2022-11-30T03:39:59.190Z,12.73
2022-11-30T03:42:26.106Z,12.93
2022-11-30T03:44:52.938Z,13.43
2022-11-30T03:47:19.778Z,13.63
2022-11-30T03:49:46.611Z,14.50
2022-11-30T03:52:13.494Z,14.50
2022-11-30T03:54:40.363Z,14.60
2022-11-30T03:57:07.207Z,12.73
2022-11-30T03:59:34.066Z,12.90
2022-11-30T04:02:01.050Z,12.13
2022-11-30T04:04:27.998Z,14.53
2022-11-30T04:06:55.894Z,14.27
2022-11-30T04:09:22.803Z,12.20
2022-11-30T04:11:49.635Z,14.10
2022-11-30T04:14:16.485Z,13.77
2022-11-30T04:16:43.312Z,12.80
2022-11-30T04:19:10.190Z,13.20
2022-11-30T04:21:37.026Z,13.93
2022-11-30T04:24:04.238Z,12.60
2022-11-30T04:26:31.116Z,13.10
2022-11-30T04:28:57.983Z,15.00
2022-11-30T04:31:24.900Z,13.77
2022-11-30T04:33:55.231Z,14.70
2022-11-30T04:36:22.363Z,13.90
2022-11-30T04:38:49.306Z,14.20
2022-11-30T04:41:16.248Z,16.30
2022-11-30T04:43:43.487Z,15.77
2022-11-30T04:46:10.682Z,14.90
2022-11-30T04:48:37.883Z,13.80
2022-11-30T04:51:09.014Z,15.20
2022-11-30T04:53:38.275Z,15.90
2022-11-30T04:56:11.443Z,15.77
2022-11-30T04:58:39.779Z,15.47
2022-11-30T05:01:07.975Z,15.90
2022-11-30T05:03:35.625Z,16.00
2022-11-30T05:06:03.652Z,16.33
2022-11-30T05:08:30.976Z,16.63
2022-11-30T05:10:58.528Z,17.90
2022-11-30T05:13:27.089Z,15.93
2022-11-30T05:15:54.363Z,18.20
2022-11-30T05:18:22.040Z,18.20
2022-11-30T05:20:52.636Z,17.63
2022-11-30T05:23:21.856Z,17.87
2022-11-30T05:25:49.072Z,15.73
2022-11-30T05:28:16.199Z,16.37
2022-11-30T05:30:43.781Z,17.63
2022-11-30T05:33:11.311Z,17.43
2022-11-30T05:35:38.206Z,16.73
2022-11-30T05:38:05.218Z,17.50
2022-11-30T05:40:33.457Z,16.00
2022-11-30T05:43:03.536Z,15.37
2022-11-30T05:45:30.888Z,16.10
2022-11-30T05:47:57.814Z,14.50
2022-11-30T05:50:24.811Z,17.80
2022-11-30T05:52:56.464Z,16.80
2022-11-30T05:55:25.187Z,17.37
2022-11-30T05:57:52.343Z,19.20
2022-11-30T06:00:21.720Z,17.63
2022-11-30T06:02:48.974Z,16.60
2022-11-30T06:05:16.237Z,16.37
2022-11-30T06:07:43.283Z,18.77
2022-11-30T06:10:11.314Z,16.25
2022-11-30T06:12:38.175Z,18.37
2022-11-30T06:15:05.893Z,18.70
2022-11-30T06:17:32.788Z,17.60
2022-11-30T06:19:59.725Z,15.90
2022-11-30T06:22:26.589Z,17.03
2022-11-30T06:24:53.443Z,17.40
2022-11-30T06:27:20.296Z,17.57
2022-11-30T06:29:47.230Z,18.23
2022-11-30T06:32:14.104Z,16.37
2022-11-30T06:34:40.953Z,18.70
2022-11-30T06:37:07.797Z,17.40
2022-11-30T06:40:04.898Z,16.73
2022-11-30T06:42:21.547Z,17.50
2022-11-30T06:44:49.005Z,16.90
2022-11-30T06:47:16.241Z,16.63
2022-11-30T06:49:43.097Z,16.10
2022-11-30T06:52:09.951Z,18.10
2022-11-30T06:54:36.798Z,16.73
2022-11-30T06:57:03.889Z,19.45
2022-11-30T06:59:31.021Z,19.07
2022-11-30T07:02:01.593Z,17.52
2022-11-30T07:04:31.188Z,18.00
2022-11-30T07:06:58.154Z,16.80
2022-11-30T07:09:25.042Z,17.15
2022-11-30T07:11:51.907Z,18.35
2022-11-30T07:14:18.845Z,16.40
2022-11-30T07:16:45.777Z,16.20
2022-11-30T07:19:12.650Z,17.98
2022-11-30T07:21:39.529Z,18.85
2022-11-30T07:24:25.448Z,18.45
2022-11-30T07:26:53.107Z,19.88
2022-11-30T07:29:19.959Z,18.57
2022-11-30T07:31:52.879Z,18.67
2022-11-30T07:34:21.411Z,19.47
2022-11-30T07:36:49.146Z,18.20
2022-11-30T07:39:16.214Z,17.02
2022-11-30T07:41:43.307Z,18.23
2022-11-30T07:44:12.610Z,18.70
2022-11-30T07:46:39.750Z,18.70
2022-11-30T07:49:10.066Z,19.03
2022-11-30T07:51:38.061Z,17.40
2022-11-30T07:54:05.186Z,17.47
2022-11-30T07:56:32.379Z,16.17
2022-11-30T07:59:02.095Z,16.90
2022-11-30T08:01:33.206Z,18.67
2022-11-30T08:04:00.883Z,18.80
2022-11-30T08:06:31.660Z,19.13
2022-11-30T08:09:03.999Z,17.90
2022-11-30T08:11:35.360Z,16.92
2022-11-30T08:14:03.863Z,17.27
2022-11-30T08:16:37.649Z,16.10
2022-11-30T08:19:04.864Z,16.77
2022-11-30T08:21:32.310Z,19.20
2022-11-30T08:23:59.478Z,15.68
2022-11-30T08:26:33.227Z,14.65
2022-11-30T08:29:01.739Z,18.25
2022-11-30T08:31:36.352Z,16.27
2022-11-30T08:34:13.736Z,15.30
2022-11-30T08:36:41.384Z,16.25
2022-11-30T08:39:12.926Z,18.08
2022-11-30T08:41:39.997Z,16.53
2022-11-30T08:44:07.418Z,19.37
2022-11-30T08:46:52.090Z,17.98
2022-11-30T08:49:22.956Z,18.38
2022-11-30T08:54:46.081Z,16.50
2022-11-30T08:57:20.144Z,16.40
2022-11-30T08:59:48.387Z,19.50
2022-11-30T09:03:32.509Z,15.48
2022-11-30T09:06:30.577Z,14.95
2022-11-30T09:08:59.134Z,15.57
2022-11-30T09:11:33.814Z,17.38
2022-11-30T09:14:06.812Z,18.23
2022-11-30T09:16:33.688Z,17.00
2022-11-30T09:19:00.676Z,15.17
2022-11-30T09:21:27.646Z,15.70
2022-11-30T09:23:56.513Z,15.93
2022-11-30T09:26:25.259Z,16.57
2022-11-30T09:28:55.130Z,15.80
2022-11-30T09:31:26.155Z,13.40
2022-11-30T09:33:57.106Z,15.03
2022-11-30T09:36:27.217Z,17.52
2022-11-30T09:38:57.378Z,16.67
2022-11-30T09:42:47.026Z,17.73
2022-11-30T09:45:24.990Z,16.40
2022-11-30T09:48:50.046Z,15.20
2022-11-30T09:51:45.055Z,15.15
2022-11-30T09:54:39.224Z,16.00
2022-11-30T09:57:32.834Z,16.90
2022-11-30T10:00:26.479Z,18.70
2022-11-30T10:02:58.760Z,16.13
2022-11-30T10:05:47.783Z,16.13
2022-11-30T10:09:21.825Z,18.93
2022-11-30T10:12:04.871Z,16.73
2022-11-30T10:15:04.108Z,19.27
2022-11-30T10:18:13.087Z,18.90
2022-11-30T10:20:53.775Z,18.13
2022-11-30T10:24:26.636Z,19.10
2022-11-30T10:26:58.559Z,17.73
2022-11-30T10:29:35.856Z,17.95
2022-11-30T10:32:38.064Z,17.20
2022-11-30T10:35:47.331Z,18.85
2022-11-30T10:38:59.029Z,16.58
2022-11-30T10:41:43.760Z,19.63
2022-11-30T10:44:26.269Z,17.73
2022-11-30T10:47:24.801Z,20.52
2022-11-30T10:49:53.023Z,20.63
2022-11-30T10:52:44.985Z,19.73
2022-11-30T10:55:25.263Z,19.70
2022-11-30T10:58:13.089Z,18.20
2022-11-30T11:00:40.216Z,18.40
2022-11-30T11:03:26.474Z,21.25
2022-11-30T11:06:20.624Z,20.53
2022-11-30T11:08:47.573Z,20.70
2022-11-30T11:11:37.444Z,19.97
2022-11-30T11:14:23.322Z,21.58
2022-11-30T11:17:04.136Z,17.58
2022-11-30T11:19:42.484Z,19.27
2022-11-30T11:22:28.160Z,21.10
2022-11-30T11:25:22.579Z,19.85
2022-11-30T11:28:01.393Z,19.50
2022-11-30T11:30:32.333Z,18.30
2022-11-30T11:33:14.460Z,19.38
2022-11-30T11:35:52.672Z,20.50
2022-11-30T11:38:31.360Z,21.98
2022-11-30T11:41:11.665Z,20.10
2022-11-30T11:44:22.123Z,20.60
2022-11-30T11:47:02.895Z,19.75
2022-11-30T11:49:35.113Z,21.80
2022-11-30T11:52:12.872Z,22.38
2022-11-30T11:54:50.814Z,20.20
2022-11-30T11:57:34.225Z,20.00
2022-11-30T12:00:15.585Z,21.70
2022-11-30T12:03:52.485Z,19.97
2022-11-30T12:06:21.793Z,20.90
2022-11-30T12:09:04.840Z,21.97
2022-11-30T12:11:48.441Z,20.80
2022-11-30T12:14:19.202Z,20.50
2022-11-30T12:17:12.358Z,21.98
2022-11-30T12:20:13.954Z,20.37
2022-11-30T12:23:50.237Z,20.90
2022-11-30T12:26:40.577Z,19.90
2022-11-30T12:29:40.969Z,21.30
2022-11-30T12:32:42.585Z,19.20
2022-11-30T12:35:35.242Z,17.27
2022-11-30T12:38:42.986Z,20.73
2022-11-30T12:41:59.474Z,18.70
2022-11-30T12:45:34.401Z,19.63
2022-11-30T12:49:02.297Z,18.77
2022-11-30T12:51:51.798Z,17.50
2022-11-30T12:54:53.954Z,18.30
2022-11-30T12:57:37.257Z,17.37
2022-11-30T13:00:20.460Z,18.07
2022-11-30T13:03:46.372Z,17.97
2022-11-30T13:06:31.711Z,17.03
2022-11-30T13:09:52.912Z,18.90
2022-11-30T13:12:38.266Z,19.37
2022-11-30T13:15:32.476Z,18.80
2022-11-30T13:18:02.566Z,17.90
2022-11-30T13:21:15.142Z,18.97
2022-11-30T13:24:08.956Z,18.87
2022-11-30T13:26:57.662Z,19.23
2022-11-30T13:30:08.906Z,18.90
2022-11-30T13:35:29.183Z,18.50
2022-11-30T13:38:34.735Z,17.70
2022-11-30T13:41:03.218Z,16.30
2022-11-30T13:43:47.882Z,16.40
2022-11-30T13:46:25.729Z,16.47
2022-11-30T13:49:24.428Z,13.52
2022-11-30T13:52:20.038Z,14.73
2022-11-30T13:54:57.141Z,13.30
2022-11-30T13:57:29.977Z,14.50
2022-11-30T14:00:23.819Z,12.00
2022-11-30T14:05:53.835Z,13.83
2022-11-30T14:08:23.331Z,15.23
2022-11-30T14:10:52.860Z,14.33
2022-11-30T14:13:21.035Z,14.32
2022-11-30T14:15:47.835Z,14.85
2022-11-30T14:18:21.555Z,14.18
2022-11-30T14:21:03.606Z,14.73
2022-11-30T14:23:43.103Z,15.95
2022-11-30T14:26:27.273Z,14.40
2022-11-30T14:29:19.346Z,14.70
2022-11-30T14:32:01.848Z,16.58
2022-11-30T14:34:41.925Z,14.30
2022-11-30T14:37:33.015Z,12.73
2022-11-30T14:40:07.176Z,13.95
2022-11-30T14:42:35.439Z,15.33
2022-11-30T14:45:03.967Z,17.55
2022-11-30T14:47:36.325Z,16.50
2022-11-30T14:50:06.181Z,13.90
2022-11-30T14:53:19.172Z,14.75
2022-11-30T14:56:15.344Z,14.93
2022-11-30T14:59:20.244Z,15.40
2022-11-30T15:01:47.239Z,17.08
2022-11-30T15:04:17.690Z,14.85
2022-11-30T15:06:44.795Z,14.82
2022-11-30T15:09:25.084Z,14.63
2022-11-30T15:11:53.718Z,14.90
2022-11-30T15:14:20.744Z,15.00
2022-11-30T15:16:55.324Z,14.52
2022-11-30T15:19:34.466Z,14.90
2022-11-30T15:22:01.515Z,15.82
2022-11-30T15:24:29.658Z,14.90
2022-11-30T15:27:15.351Z,15.00
2022-11-30T15:30:00.626Z,14.23
2022-11-30T15:32:29.016Z,14.75
2022-11-30T15:35:03.378Z,15.00
2022-11-30T15:37:43.328Z,14.55
2022-11-30T15:40:21.314Z,14.95
2022-11-30T15:42:50.489Z,15.00
2022-11-30T15:45:36.133Z,15.32
2022-11-30T15:48:26.841Z,13.85
2022-11-30T15:50:53.760Z,15.43
2022-11-30T15:53:49.550Z,15.25
2022-11-30T15:56:28.463Z,16.13
2022-11-30T15:59:25.736Z,17.35
2022-11-30T16:02:14.096Z,14.95
2022-11-30T16:05:14.559Z,13.10
2022-11-30T16:08:03.505Z,14.05
2022-11-30T16:10:39.796Z,15.35
2022-11-30T16:13:06.878Z,15.60
2022-11-30T16:15:36.592Z,14.57
2022-11-30T16:18:28.266Z,13.68
2022-11-30T16:21:01.489Z,13.50
2022-11-30T16:23:29.104Z,17.27
2022-11-30T16:25:56.532Z,16.77
2022-11-30T16:28:23.499Z,16.45
2022-11-30T16:30:51.197Z,15.25
2022-11-30T16:33:30.637Z,15.30
2022-11-30T16:36:24.041Z,16.27
2022-11-30T16:38:53.543Z,18.13
2022-11-30T16:41:27.475Z,16.55
2022-11-30T16:43:57.646Z,16.20
2022-11-30T16:46:28.966Z,15.50
2022-11-30T16:48:56.919Z,17.10
2022-11-30T16:51:36.212Z,14.95
2022-11-30T16:54:03.746Z,16.05
2022-11-30T16:56:30.722Z,14.30
2022-11-30T16:58:57.533Z,16.23
2022-11-30T17:01:36.824Z,16.17
2022-11-30T17:04:23.754Z,16.52
2022-11-30T17:06:55.844Z,15.52
2022-11-30T17:09:27.046Z,14.85
2022-11-30T17:11:53.978Z,15.85
2022-11-30T17:14:21.913Z,17.23
2022-11-30T17:16:48.811Z,17.15
2022-11-30T17:19:15.735Z,14.70
2022-11-30T17:21:44.315Z,16.50
2022-11-30T17:24:11.860Z,14.95
2022-11-30T17:26:38.902Z,16.42
2022-11-30T17:29:06.087Z,15.40
2022-11-30T17:31:33.614Z,17.30
2022-11-30T17:34:01.206Z,15.32
2022-11-30T17:36:29.240Z,15.48
2022-11-30T17:38:56.582Z,16.08
2022-11-30T17:41:23.887Z,14.98
2022-11-30T17:43:51.923Z,14.52
2022-11-30T17:46:20.864Z,15.70
2022-11-30T17:48:49.533Z,15.07
2022-11-30T17:51:17.017Z,17.90
2022-11-30T17:53:44.542Z,15.05
2022-11-30T17:56:17.341Z,14.32
2022-11-30T17:58:46.416Z,15.93
2022-11-30T18:01:23.697Z,18.27
2022-11-30T18:03:53.184Z,16.25
2022-11-30T18:06:20.643Z,16.00
2022-11-30T18:08:48.067Z,15.20
2022-11-30T18:11:25.094Z,16.13
2022-11-30T18:13:56.458Z,15.27
2022-11-30T18:16:34.152Z,15.10
2022-11-30T18:19:00.996Z,14.15
2022-11-30T18:21:29.781Z,13.73
2022-11-30T18:23:59.006Z,15.85
2022-11-30T18:26:27.258Z,16.55
2022-11-30T18:29:00.212Z,15.27
2022-11-30T18:31:29.939Z,17.17
2022-11-30T18:34:01.704Z,15.88
2022-11-30T18:36:29.106Z,13.90
2022-11-30T18:38:56.388Z,17.45
2022-11-30T18:41:25.971Z,15.30
2022-11-30T18:43:53.562Z,19.77
2022-11-30T18:46:20.874Z,16.73
2022-11-30T18:48:53.002Z,16.15
2022-11-30T18:51:24.982Z,17.65
2022-11-30T18:54:06.399Z,14.40
2022-11-30T18:56:37.675Z,14.20
2022-11-30T18:59:14.260Z,15.32
2022-11-30T19:01:42.119Z,16.42
2022-11-30T19:04:11.398Z,14.15
2022-11-30T19:06:41.663Z,15.25
2022-11-30T19:09:15.220Z,15.02
2022-11-30T19:11:43.461Z,14.68
2022-11-30T19:14:15.986Z,15.27
2022-11-30T19:16:44.549Z,14.30
2022-11-30T19:19:14.085Z,15.30
2022-11-30T19:21:45.227Z,16.75
2022-11-30T19:24:12.070Z,15.57
2022-11-30T19:26:40.072Z,14.90
2022-11-30T19:29:07.855Z,16.23
2022-11-30T19:31:34.827Z,17.02
2022-11-30T19:34:05.560Z,16.30
2022-11-30T19:36:36.117Z,17.23
2022-11-30T19:39:03.177Z,14.88
2022-11-30T19:41:30.088Z,13.23
2022-11-30T19:44:04.002Z,15.70
2022-11-30T19:46:33.089Z,20.02
2022-11-30T19:49:02.084Z,21.90
2022-11-30T19:51:31.471Z,17.55
2022-11-30T19:53:59.423Z,16.70
2022-11-30T19:56:30.913Z,15.20
2022-11-30T19:59:04.526Z,15.40
2022-11-30T20:01:33.392Z,16.98
2022-11-30T20:04:00.681Z,16.55
2022-11-30T20:06:35.999Z,15.25
2022-11-30T20:09:06.740Z,13.87
2022-11-30T20:11:34.317Z,15.07
2022-11-30T20:14:01.343Z,14.32
2022-11-30T20:16:28.978Z,14.02
2022-11-30T20:19:01.025Z,14.93
2022-11-30T20:21:35.389Z,15.80
2022-11-30T20:24:10.430Z,15.45
2022-11-30T20:26:43.235Z,14.75
2022-11-30T20:29:17.819Z,16.33
2022-11-30T20:31:48.504Z,15.00
2022-11-30T20:34:17.203Z,15.52
2022-11-30T20:36:45.122Z,15.88
2022-11-30T20:39:12.606Z,16.48
2022-11-30T20:41:39.628Z,16.85
2022-11-30T20:44:06.509Z,17.00
2022-11-30T20:46:35.933Z,14.30
2022-11-30T20:49:13.194Z,15.80
2022-11-30T20:51:40.031Z,17.33
2022-11-30T20:54:07.361Z,16.35
2022-11-30T20:56:38.385Z,17.13
2022-11-30T20:59:17.256Z,15.77
2022-11-30T21:01:46.670Z,14.73
2022-11-30T21:04:13.603Z,13.60
2022-11-30T21:06:45.278Z,14.40
2022-11-30T21:09:15.662Z,16.17
2022-11-30T21:11:43.826Z,15.90
2022-11-30T21:14:11.540Z,17.17
2022-11-30T21:16:39.538Z,14.55
2022-11-30T21:19:06.571Z,15.38
2022-11-30T21:21:35.535Z,15.60
2022-11-30T21:24:07.947Z,16.15
2022-11-30T21:26:40.743Z,15.93
2022-11-30T21:29:14.635Z,15.38
2022-11-30T21:31:42.144Z,14.82
2022-11-30T21:34:09.523Z,16.23
2022-11-30T21:36:36.635Z,16.20
2022-11-30T21:39:07.266Z,15.77
2022-11-30T21:41:38.583Z,16.35
2022-11-30T21:44:10.266Z,16.88
2022-11-30T21:46:37.634Z,18.33
2022-11-30T21:49:06.384Z,17.80
2022-11-30T21:51:33.336Z,17.15
2022-11-30T21:54:06.244Z,16.50
2022-11-30T21:56:38.701Z,14.55
2022-11-30T21:59:09.232Z,15.77
2022-11-30T22:01:41.616Z,15.68
2022-11-30T22:04:12.512Z,16.42
2022-11-30T22:06:41.840Z,15.45
2022-11-30T22:09:15.985Z,15.38
2022-11-30T22:11:45.324Z,14.02
2022-11-30T22:14:16.931Z,14.82
2022-11-30T22:16:45.017Z,16.55
2022-11-30T22:19:11.897Z,16.13
2022-11-30T22:21:39.721Z,16.27
2022-11-30T22:24:12.129Z,16.58
2022-11-30T22:26:43.931Z,14.40
2022-11-30T22:29:22.400Z,15.48
2022-11-30T22:31:54.185Z,17.08
2022-11-30T22:34:21.695Z,16.30
2022-11-30T22:36:49.005Z,14.88
2022-11-30T22:39:21.818Z,14.75
2022-11-30T22:41:55.713Z,14.25
2022-11-30T22:44:25.404Z,15.77
2022-11-30T22:46:52.474Z,15.70
2022-11-30T22:49:21.594Z,19.70
2022-11-30T22:51:50.347Z,16.65
2022-11-30T22:54:18.401Z,14.88
2022-11-30T22:56:46.285Z,16.13
2022-11-30T22:59:16.308Z,15.63
2022-11-30T23:01:50.039Z,16.67
2022-11-30T23:04:22.561Z,16.08
2022-11-30T23:06:50.618Z,16.88
2022-11-30T23:09:22.971Z,15.88
2022-11-30T23:11:51.716Z,20.13
2022-11-30T23:14:19.239Z,15.23
2022-11-30T23:16:46.658Z,14.95
2022-11-30T23:19:14.718Z,16.08
2022-11-30T23:21:46.852Z,14.30
2022-11-30T23:24:20.522Z,14.35
2022-11-30T23:26:48.755Z,15.10
2022-11-30T23:29:17.622Z,14.13
2022-11-30T23:31:46.149Z,15.05
2022-11-30T23:34:18.947Z,16.52
2022-11-30T23:36:48.357Z,15.95
2022-11-30T23:39:19.058Z,17.05
2022-11-30T23:41:46.635Z,15.20
2022-11-30T23:44:13.919Z,15.90
2022-11-30T23:46:41.228Z,15.70
2022-11-30T23:49:08.446Z,15.05
2022-11-30T23:51:35.509Z,15.60
2022-11-30T23:54:02.857Z,13.70
2022-11-30T23:56:29.863Z,15.48
2022-11-30T23:58:56.750Z,14.93
